createdAt,value
2023-04-27T00:02:17.599Z,6.50
2023-04-27T00:04:45.293Z,6.30
2023-04-27T00:07:12.786Z,5.00
2023-04-27T00:09:40.085Z,5.00
2023-04-27T00:12:07.468Z,4.10
2023-04-27T00:14:34.731Z,4.10
2023-04-27T00:17:02.105Z,4.00
2023-04-27T00:19:30.540Z,5.60
2023-04-27T00:21:58.061Z,6.20
2023-04-27T00:24:25.750Z,4.00
2023-04-27T00:26:53.065Z,3.60
2023-04-27T00:29:20.496Z,3.90
2023-04-27T00:31:48.069Z,3.90
2023-04-27T00:34:15.465Z,3.70
2023-04-27T00:36:42.770Z,6.00
2023-04-27T00:39:10.044Z,5.50
2023-04-27T00:41:39.425Z,4.20
2023-04-27T00:44:06.777Z,5.90
2023-04-27T00:46:36.178Z,4.60
2023-04-27T00:49:04.135Z,3.60
2023-04-27T00:51:32.156Z,5.70
2023-04-27T00:54:00.957Z,3.50
2023-04-27T00:56:28.403Z,5.40
2023-04-27T00:58:55.935Z,4.60
2023-04-27T01:01:23.955Z,3.70
2023-04-27T01:03:51.850Z,5.90
2023-04-27T01:06:19.414Z,4.30
2023-04-27T01:08:47.011Z,3.40
2023-04-27T01:11:14.446Z,5.30
2023-04-27T01:13:42.030Z,4.50
2023-04-27T01:16:09.502Z,4.60
2023-04-27T01:18:40.777Z,3.30
2023-04-27T01:21:08.340Z,3.40
2023-04-27T01:23:35.821Z,5.90
2023-04-27T01:26:04.353Z,3.10
2023-04-27T01:28:31.823Z,3.30
2023-04-27T01:31:01.238Z,4.20
2023-04-27T01:33:28.521Z,5.40
2023-04-27T01:35:55.888Z,4.90
2023-04-27T01:38:24.155Z,4.10
2023-04-27T01:40:52.676Z,3.80
2023-04-27T01:43:21.490Z,5.70
2023-04-27T01:45:48.952Z,4.50
2023-04-27T01:48:16.535Z,5.60
2023-04-27T01:50:46.307Z,3.60
2023-04-27T01:53:13.881Z,4.70
2023-04-27T01:55:42.011Z,5.40
2023-04-27T01:58:09.343Z,3.10
2023-04-27T02:00:36.712Z,3.70
2023-04-27T02:03:04.277Z,5.30
2023-04-27T02:05:31.797Z,3.30
2023-04-27T02:07:59.194Z,3.40
2023-04-27T02:10:26.728Z,3.20
2023-04-27T02:12:57.199Z,5.20
2023-04-27T02:15:24.612Z,5.40
2023-04-27T02:17:51.992Z,3.80
2023-04-27T02:20:19.364Z,4.70
2023-04-27T02:22:46.721Z,3.20
2023-04-27T02:25:14.398Z,4.50
2023-04-27T02:27:43.497Z,4.40
2023-04-27T02:30:12.248Z,5.00
2023-04-27T02:32:41.219Z,3.20
2023-04-27T02:35:09.632Z,5.50
2023-04-27T02:37:37.201Z,3.20
2023-04-27T02:40:07.795Z,3.20
2023-04-27T02:42:35.707Z,3.10
2023-04-27T02:45:04.101Z,4.60
2023-04-27T02:47:31.449Z,3.20
2023-04-27T02:49:58.760Z,5.30
2023-04-27T02:52:26.654Z,3.10
2023-04-27T02:54:54.102Z,3.00
2023-04-27T02:57:21.598Z,2.90
2023-04-27T02:59:48.965Z,3.00
2023-04-27T03:02:16.323Z,2.60
2023-04-27T03:04:43.951Z,2.90
2023-04-27T03:07:12.782Z,2.70
2023-04-27T03:09:40.208Z,2.20
2023-04-27T03:12:07.587Z,2.90
2023-04-27T03:14:35.357Z,2.60
2023-04-27T03:17:03.188Z,3.90
2023-04-27T03:19:30.443Z,3.30
2023-04-27T03:21:58.782Z,2.60
2023-04-27T03:24:26.101Z,2.60
2023-04-27T03:26:53.454Z,2.50
2023-04-27T03:29:21.907Z,3.50
2023-04-27T03:31:49.299Z,2.70
2023-04-27T03:34:16.843Z,2.70
2023-04-27T03:36:45.516Z,2.40
2023-04-27T03:39:12.976Z,4.20
2023-04-27T03:41:40.402Z,4.10
2023-04-27T03:44:08.732Z,2.70
2023-04-27T03:46:36.123Z,3.40
2023-04-27T03:49:04.043Z,2.30
2023-04-27T03:51:33.097Z,2.60
2023-04-27T03:54:00.505Z,2.50
2023-04-27T03:56:28.972Z,4.70
2023-04-27T03:58:56.749Z,3.90
2023-04-27T04:01:34.011Z,2.10
2023-04-27T04:04:01.482Z,3.10
2023-04-27T04:06:29.169Z,2.50
2023-04-27T04:08:57.035Z,3.00
2023-04-27T04:11:24.513Z,4.50
2023-04-27T04:13:55.259Z,4.50
2023-04-27T04:16:22.894Z,2.10
2023-04-27T04:18:52.619Z,2.10
2023-04-27T04:21:20.117Z,4.10
2023-04-27T04:23:49.277Z,0.80
2023-04-27T04:26:16.760Z,4.30
2023-04-27T04:28:44.247Z,4.50
2023-04-27T04:31:11.604Z,2.30
2023-04-27T04:33:40.416Z,1.60
2023-04-27T04:36:08.068Z,3.20
2023-04-27T04:38:35.373Z,2.50
2023-04-27T04:41:02.807Z,4.10
2023-04-27T04:43:32.998Z,3.10
2023-04-27T04:46:03.362Z,2.20
2023-04-27T04:48:30.699Z,2.40
2023-04-27T04:50:58.034Z,2.30
2023-04-27T04:53:26.164Z,2.40
2023-04-27T04:55:55.961Z,2.60
2023-04-27T04:58:23.245Z,3.40
2023-04-27T05:00:50.625Z,2.70
2023-04-27T05:03:18.060Z,2.70
2023-04-27T05:05:45.472Z,4.30
2023-04-27T05:08:13.601Z,3.30
2023-04-27T05:10:40.978Z,3.20
2023-04-27T05:13:08.366Z,3.40
2023-04-27T05:15:37.551Z,3.00
2023-04-27T05:18:04.918Z,3.10
2023-04-27T05:20:35.319Z,3.20
2023-04-27T05:23:02.797Z,3.50
2023-04-27T05:25:31.029Z,5.80
2023-04-27T05:27:58.648Z,5.60
2023-04-27T05:30:25.992Z,3.60
2023-04-27T05:32:53.374Z,4.80
2023-04-27T05:35:20.759Z,5.80
2023-04-27T05:37:48.131Z,3.80
2023-04-27T05:40:15.762Z,6.10
2023-04-27T05:42:43.056Z,4.20
2023-04-27T05:45:10.768Z,5.30
2023-04-27T05:47:38.367Z,4.20
2023-04-27T05:50:06.275Z,4.30
2023-04-27T05:52:34.967Z,4.40
2023-04-27T05:55:03.756Z,4.50
2023-04-27T05:57:31.223Z,4.60
2023-04-27T05:59:58.624Z,4.80
2023-04-27T06:02:26.390Z,4.70
2023-04-27T06:04:53.812Z,6.60
2023-04-27T06:07:21.371Z,6.80
2023-04-27T06:09:48.660Z,5.20
2023-04-27T06:12:15.972Z,4.70
2023-04-27T06:14:43.468Z,5.30
2023-04-27T06:17:10.811Z,6.30
2023-04-27T06:19:38.084Z,5.50
2023-04-27T06:22:05.455Z,5.80
2023-04-27T06:24:32.909Z,6.90
2023-04-27T06:27:00.244Z,7.20
2023-04-27T06:29:27.679Z,5.90
2023-04-27T06:31:54.988Z,6.70
2023-04-27T06:34:22.306Z,7.70
2023-04-27T06:36:49.649Z,7.20
2023-04-27T06:39:17.017Z,6.40
2023-04-27T06:41:44.390Z,6.40
2023-04-27T06:44:19.370Z,5.50
2023-04-27T06:46:46.732Z,6.80
2023-04-27T06:49:14.220Z,6.40
2023-04-27T06:51:41.791Z,8.90
2023-04-27T06:54:09.144Z,8.20
2023-04-27T06:56:36.704Z,6.70
2023-04-27T06:59:04.049Z,7.20
2023-04-27T07:01:31.460Z,7.80
2023-04-27T07:03:58.937Z,7.50
2023-04-27T07:06:26.846Z,9.30
2023-04-27T07:08:54.296Z,7.60
2023-04-27T07:11:21.697Z,7.70
2023-04-27T07:13:49.023Z,9.60
2023-04-27T07:16:16.984Z,9.10
2023-04-27T07:18:44.914Z,8.20
2023-04-27T07:21:12.465Z,10.20
2023-04-27T07:23:41.587Z,9.50
2023-04-27T07:26:09.830Z,8.40
2023-04-27T07:28:38.225Z,8.00
2023-04-27T07:31:07.194Z,9.30
2023-04-27T07:33:40.918Z,8.60
2023-04-27T07:36:08.400Z,8.80
2023-04-27T07:38:35.794Z,8.90
2023-04-27T07:41:04.399Z,11.10
2023-04-27T07:43:33.576Z,9.20
2023-04-27T07:46:01.362Z,9.40
2023-04-27T07:48:28.907Z,9.50
2023-04-27T07:50:56.258Z,10.60
2023-04-27T07:53:24.086Z,9.80
2023-04-27T07:55:51.422Z,10.10
2023-04-27T07:58:19.878Z,11.10
2023-04-27T08:00:48.593Z,10.40
2023-04-27T08:03:16.721Z,10.50
2023-04-27T08:05:44.729Z,10.50
2023-04-27T08:08:12.691Z,12.10
2023-04-27T08:10:40.298Z,11.90
2023-04-27T08:13:09.937Z,10.60
2023-04-27T08:15:37.576Z,11.30
2023-04-27T08:18:05.047Z,10.90
2023-04-27T08:20:32.402Z,10.80
2023-04-27T08:22:59.730Z,11.30
2023-04-27T08:25:27.163Z,10.90
2023-04-27T08:27:54.558Z,10.90
2023-04-27T08:30:21.909Z,10.90
2023-04-27T08:32:50.653Z,11.00
2023-04-27T08:35:18.204Z,11.20
2023-04-27T08:37:45.566Z,12.60
2023-04-27T08:40:13.385Z,11.30
2023-04-27T08:42:53.682Z,11.30
2023-04-27T08:45:22.277Z,11.50
2023-04-27T08:47:51.412Z,12.40
2023-04-27T08:50:19.588Z,11.60
2023-04-27T08:52:48.142Z,12.40
2023-04-27T08:55:16.695Z,11.60
2023-04-27T08:57:56.205Z,11.70
2023-04-27T09:00:25.370Z,11.70
2023-04-27T09:02:53.152Z,12.30
2023-04-27T09:05:22.618Z,11.40
2023-04-27T09:08:00.192Z,11.40
2023-04-27T09:10:29.510Z,11.60
2023-04-27T09:12:58.278Z,11.70
2023-04-27T09:15:26.384Z,12.80
2023-04-27T09:17:55.778Z,12.00
2023-04-27T09:20:23.795Z,12.90
2023-04-27T09:22:58.340Z,11.90
2023-04-27T09:25:31.468Z,12.60
2023-04-27T09:28:00.579Z,11.90
2023-04-27T09:30:29.229Z,12.70
2023-04-27T09:33:03.063Z,12.10
2023-04-27T09:35:33.156Z,14.00
2023-04-27T09:38:01.552Z,13.20
2023-04-27T09:40:31.290Z,13.30
2023-04-27T09:43:03.274Z,12.60
2023-04-27T09:45:31.236Z,12.80
2023-04-27T09:47:58.862Z,12.90
2023-04-27T09:50:26.703Z,13.10
2023-04-27T09:52:54.061Z,13.20
2023-04-27T09:55:28.438Z,14.10
2023-04-27T09:58:14.751Z,13.50
2023-04-27T10:01:17.555Z,13.70
2023-04-27T10:04:13.294Z,13.80
2023-04-27T10:06:58.211Z,14.00
2023-04-27T10:09:26.718Z,14.20
2023-04-27T10:11:55.114Z,14.30
2023-04-27T10:14:24.759Z,14.30
2023-04-27T10:16:52.222Z,14.20
2023-04-27T10:19:23.785Z,14.10
2023-04-27T10:21:57.948Z,14.10
2023-04-27T10:24:38.713Z,14.30
2023-04-27T10:27:08.831Z,14.40
2023-04-27T10:29:41.879Z,14.30
2023-04-27T10:32:13.435Z,14.50
2023-04-27T10:34:41.852Z,14.30
2023-04-27T10:37:11.770Z,14.40
2023-04-27T10:39:48.702Z,14.40
2023-04-27T10:42:28.713Z,14.40
2023-04-27T10:44:59.810Z,14.40
2023-04-27T10:47:43.156Z,14.50
2023-04-27T10:50:13.375Z,14.30
2023-04-27T10:52:45.611Z,14.20
2023-04-27T10:55:14.815Z,14.30
2023-04-27T10:57:51.045Z,14.30
2023-04-27T11:00:33.594Z,14.40
2023-04-27T11:03:19.971Z,14.30
2023-04-27T11:05:49.318Z,14.30
2023-04-27T11:08:18.761Z,14.40
2023-04-27T11:10:50.117Z,14.30
2023-04-27T11:13:25.583Z,14.30
2023-04-27T11:15:56.476Z,14.30
2023-04-27T11:18:26.613Z,14.40
2023-04-27T11:21:05.420Z,14.50
2023-04-27T11:23:37.103Z,14.60
2023-04-27T11:26:17.340Z,14.60
2023-04-27T11:29:09.290Z,14.60
2023-04-27T11:31:50.728Z,14.50
2023-04-27T11:34:23.287Z,15.00
2023-04-27T11:37:17.464Z,15.10
2023-04-27T11:39:46.364Z,14.50
2023-04-27T11:42:18.650Z,14.60
2023-04-27T11:45:15.625Z,14.80
2023-04-27T11:47:47.587Z,14.90
2023-04-27T11:50:15.394Z,15.10
2023-04-27T11:52:42.855Z,15.50
2023-04-27T11:55:16.386Z,15.20
2023-04-27T11:57:43.818Z,15.20
2023-04-27T12:00:14.673Z,15.40
2023-04-27T12:02:43.693Z,15.20
2023-04-27T12:05:13.242Z,15.60
2023-04-27T12:07:41.546Z,15.10
2023-04-27T12:10:09.479Z,15.10
2023-04-27T12:12:36.827Z,15.20
2023-04-27T12:15:04.561Z,15.20
2023-04-27T12:17:32.783Z,15.30
2023-04-27T12:20:00.247Z,15.40
2023-04-27T12:22:27.662Z,15.40
2023-04-27T12:24:55.023Z,15.50
2023-04-27T12:27:22.381Z,15.60
2023-04-27T12:29:50.164Z,15.60
2023-04-27T12:32:17.479Z,13.70
2023-04-27T12:34:44.817Z,15.70
2023-04-27T12:37:12.928Z,15.70
2023-04-27T12:39:40.312Z,15.80
2023-04-27T12:42:07.723Z,15.90
2023-04-27T12:44:35.164Z,15.90
2023-04-27T12:47:03.690Z,15.90
2023-04-27T12:49:31.168Z,15.90
2023-04-27T12:51:59.280Z,15.90
2023-04-27T12:54:26.748Z,15.90
2023-04-27T12:56:54.341Z,15.90
2023-04-27T12:59:21.662Z,16.00
2023-04-27T13:01:49.195Z,16.00
2023-04-27T13:04:21.310Z,16.00
2023-04-27T13:06:49.282Z,16.20
2023-04-27T13:09:19.603Z,16.30
2023-04-27T13:11:47.182Z,16.40
2023-04-27T13:14:15.036Z,16.50
2023-04-27T13:16:42.949Z,16.70
2023-04-27T13:19:10.648Z,16.80
2023-04-27T13:21:38.712Z,16.90
2023-04-27T13:24:06.652Z,16.60
2023-04-27T13:26:34.168Z,17.10
2023-04-27T13:29:04.570Z,17.10
2023-04-27T13:31:34.994Z,17.20
2023-04-27T13:34:04.541Z,17.20
2023-04-27T13:36:31.969Z,17.20
2023-04-27T13:39:00.536Z,17.20
2023-04-27T13:41:28.525Z,17.10
2023-04-27T13:43:55.934Z,17.00
2023-04-27T13:46:23.366Z,17.20
2023-04-27T13:48:50.952Z,17.00
2023-04-27T13:51:18.368Z,17.00
2023-04-27T13:53:46.394Z,17.30
2023-04-27T13:56:13.760Z,17.00
2023-04-27T13:58:41.769Z,16.90
2023-04-27T14:01:09.287Z,16.70
2023-04-27T14:03:36.705Z,16.50
2023-04-27T14:06:04.434Z,16.40
2023-04-27T14:08:31.751Z,16.40
2023-04-27T14:10:59.317Z,16.40
2023-04-27T14:13:26.763Z,16.40
2023-04-27T14:15:54.153Z,16.50
2023-04-27T14:18:27.385Z,16.60
2023-04-27T14:20:59.330Z,16.60
2023-04-27T14:23:26.719Z,16.70
2023-04-27T14:25:54.023Z,17.00
2023-04-27T14:28:21.873Z,16.70
2023-04-27T14:30:49.212Z,16.60
2023-04-27T14:33:16.625Z,16.60
2023-04-27T14:35:50.293Z,16.60
2023-04-27T14:38:17.619Z,16.70
2023-04-27T14:40:44.964Z,16.70
2023-04-27T14:43:12.274Z,16.70
2023-04-27T14:45:50.224Z,16.60
2023-04-27T14:48:20.004Z,16.50
2023-04-27T14:50:47.397Z,16.30
2023-04-27T14:53:14.807Z,16.30
2023-04-27T14:55:44.123Z,16.20
2023-04-27T14:58:12.409Z,16.20
2023-04-27T15:00:39.977Z,16.10
2023-04-27T15:03:07.611Z,16.10
2023-04-27T15:05:35.143Z,14.90
2023-04-27T15:08:02.794Z,16.10
2023-04-27T15:10:31.463Z,16.00
2023-04-27T15:12:58.875Z,16.10
2023-04-27T15:15:26.231Z,16.00
2023-04-27T15:17:53.680Z,16.10
2023-04-27T15:20:21.360Z,15.80
2023-04-27T15:22:48.695Z,15.80
2023-04-27T15:25:16.013Z,14.30
2023-04-27T15:27:43.339Z,15.60
2023-04-27T15:30:11.136Z,15.70
2023-04-27T15:32:39.139Z,15.70
2023-04-27T15:35:08.392Z,15.70
2023-04-27T15:37:36.792Z,15.60
2023-04-27T15:40:09.094Z,15.60
2023-04-27T15:42:36.492Z,15.50
2023-04-27T15:45:04.092Z,15.50
2023-04-27T15:47:31.528Z,15.40
2023-04-27T15:49:58.862Z,15.30
2023-04-27T15:52:27.217Z,15.20
2023-04-27T15:54:55.164Z,15.10
2023-04-27T15:57:22.659Z,15.20
2023-04-27T15:59:50.034Z,15.20
2023-04-27T16:02:17.461Z,15.10
2023-04-27T16:04:44.831Z,15.10
2023-04-27T16:07:12.210Z,15.10
2023-04-27T16:09:39.597Z,15.20
2023-04-27T16:12:06.984Z,15.20
2023-04-27T16:14:34.309Z,15.20
2023-04-27T16:17:02.777Z,15.20
2023-04-27T16:19:30.390Z,15.10
2023-04-27T16:21:57.801Z,15.00
2023-04-27T16:24:28.196Z,15.00
2023-04-27T16:26:55.744Z,15.00
2023-04-27T16:29:23.091Z,14.90
2023-04-27T16:31:50.876Z,14.70
2023-04-27T16:34:18.310Z,14.70
2023-04-27T16:36:48.424Z,15.30
2023-04-27T16:39:18.871Z,14.90
2023-04-27T16:41:46.381Z,14.60
2023-04-27T16:44:16.501Z,14.50
2023-04-27T16:46:44.077Z,14.50
2023-04-27T16:49:11.746Z,14.40
2023-04-27T16:51:39.222Z,14.50
2023-04-27T16:54:06.951Z,14.20
2023-04-27T16:56:36.158Z,14.20
2023-04-27T16:59:05.010Z,14.20
2023-04-27T17:01:32.446Z,14.20
2023-04-27T17:04:02.256Z,14.10
2023-04-27T17:06:33.558Z,14.00
2023-04-27T17:09:01.589Z,14.60
2023-04-27T17:11:29.181Z,14.10
2023-04-27T17:13:56.804Z,14.00
2023-04-27T17:16:24.236Z,14.60
2023-04-27T17:18:51.705Z,14.40
2023-04-27T17:21:21.496Z,13.70
2023-04-27T17:23:50.638Z,13.70
2023-04-27T17:26:21.365Z,14.70
2023-04-27T17:28:49.256Z,13.60
2023-04-27T17:31:17.995Z,13.60
2023-04-27T17:33:45.826Z,13.50
2023-04-27T17:36:14.868Z,13.40
2023-04-27T17:38:42.381Z,12.00
2023-04-27T17:41:09.710Z,14.20
2023-04-27T17:43:37.651Z,13.20
2023-04-27T17:46:09.775Z,13.10
2023-04-27T17:48:37.987Z,12.30
2023-04-27T17:51:05.406Z,13.00
2023-04-27T17:53:32.737Z,12.90
2023-04-27T17:56:00.289Z,12.90
2023-04-27T17:58:28.122Z,13.20
2023-04-27T18:00:55.692Z,13.40
2023-04-27T18:03:23.456Z,13.30
2023-04-27T18:05:51.508Z,12.70
2023-04-27T18:08:18.896Z,12.70
2023-04-27T18:10:46.332Z,13.50
2023-04-27T18:13:13.791Z,12.60
2023-04-27T18:15:41.217Z,12.50
2023-04-27T18:18:08.655Z,12.50
2023-04-27T18:20:36.585Z,12.40
2023-04-27T18:23:03.964Z,12.40
2023-04-27T18:25:32.025Z,12.30
2023-04-27T18:27:59.346Z,12.40
2023-04-27T18:30:26.706Z,12.30
2023-04-27T18:32:54.082Z,12.30
2023-04-27T18:35:21.437Z,12.50
2023-04-27T18:37:49.181Z,12.20
2023-04-27T18:40:19.713Z,12.10
2023-04-27T18:42:47.623Z,12.10
2023-04-27T18:45:15.567Z,12.30
2023-04-27T18:47:43.003Z,11.80
2023-04-27T18:50:13.203Z,12.10
2023-04-27T18:52:40.573Z,12.00
2023-04-27T18:55:09.312Z,12.00
2023-04-27T18:57:36.919Z,12.00
2023-04-27T19:00:05.824Z,12.00
2023-04-27T19:02:33.404Z,11.90
2023-04-27T19:05:11.450Z,11.90
2023-04-27T19:07:40.024Z,12.00
2023-04-27T19:10:08.405Z,12.90
2023-04-27T19:12:35.938Z,11.90
2023-04-27T19:15:04.604Z,12.10
2023-04-27T19:17:32.154Z,11.90
2023-04-27T19:19:59.588Z,12.80
2023-04-27T19:22:27.938Z,12.30
2023-04-27T19:24:55.394Z,13.20
2023-04-27T19:27:22.714Z,13.10
2023-04-27T19:29:53.491Z,12.70
2023-04-27T19:32:21.987Z,11.80
2023-04-27T19:34:49.423Z,12.40
2023-04-27T19:37:17.045Z,11.80
2023-04-27T19:39:44.668Z,12.90
2023-04-27T19:42:12.034Z,12.20
2023-04-27T19:44:39.427Z,13.20
2023-04-27T19:47:10.807Z,11.60
2023-04-27T19:49:38.398Z,11.50
2023-04-27T19:52:06.717Z,11.60
2023-04-27T19:54:37.582Z,12.90
2023-04-27T19:57:04.977Z,13.00
2023-04-27T19:59:32.326Z,11.40
2023-04-27T20:01:59.743Z,11.40
2023-04-27T20:04:27.510Z,11.40
2023-04-27T20:06:54.984Z,12.50
2023-04-27T20:09:22.295Z,13.30
2023-04-27T20:11:49.721Z,11.70
2023-04-27T20:14:17.564Z,11.90
2023-04-27T20:16:45.258Z,12.00
2023-04-27T20:19:12.871Z,11.40
2023-04-27T20:21:40.203Z,12.70
2023-04-27T20:24:07.913Z,11.20
2023-04-27T20:26:35.313Z,11.30
2023-04-27T20:29:02.843Z,11.60
2023-04-27T20:31:30.358Z,11.30
2023-04-27T20:33:58.832Z,11.30
2023-04-27T20:36:27.611Z,11.30
2023-04-27T20:38:54.987Z,11.30
2023-04-27T20:41:22.368Z,11.90
2023-04-27T20:43:52.434Z,11.20
2023-04-27T20:46:20.531Z,13.30
2023-04-27T20:48:47.906Z,11.20
2023-04-27T20:51:15.204Z,11.20
2023-04-27T20:53:42.697Z,11.50
2023-04-27T20:56:12.059Z,11.10
2023-04-27T20:58:39.925Z,11.10
2023-04-27T21:01:07.316Z,11.10
2023-04-27T21:03:35.724Z,11.90
2023-04-27T21:06:03.332Z,11.10
2023-04-27T21:08:30.847Z,12.00
2023-04-27T21:10:58.314Z,12.60
2023-04-27T21:13:25.827Z,11.90
2023-04-27T21:15:53.283Z,10.90
2023-04-27T21:18:29.592Z,11.30
2023-04-27T21:20:58.146Z,10.80
2023-04-27T21:23:26.685Z,10.90
2023-04-27T21:25:54.045Z,12.10
2023-04-27T21:28:21.583Z,11.00
2023-04-27T21:30:49.014Z,10.90
2023-04-27T21:33:16.450Z,10.80
2023-04-27T21:35:43.790Z,11.20
2023-04-27T21:38:11.359Z,10.90
2023-04-27T21:40:38.687Z,10.80
2023-04-27T21:43:07.599Z,10.80
2023-04-27T21:45:38.078Z,10.80
2023-04-27T21:48:05.737Z,10.70
2023-04-27T21:50:33.085Z,10.80
2023-04-27T21:53:00.356Z,11.70
2023-04-27T21:55:27.718Z,11.60
2023-04-27T21:57:55.080Z,11.60
2023-04-27T22:00:22.565Z,10.60
2023-04-27T22:02:51.150Z,10.70
2023-04-27T22:05:20.934Z,12.40
2023-04-27T22:07:48.405Z,12.60
2023-04-27T22:10:16.146Z,10.80
2023-04-27T22:12:46.775Z,10.60
2023-04-27T22:15:14.148Z,10.70
2023-04-27T22:17:41.544Z,10.70
2023-04-27T22:20:12.950Z,11.10
2023-04-27T22:22:41.060Z,10.70
2023-04-27T22:25:08.907Z,10.80
2023-04-27T22:27:44.479Z,10.70
2023-04-27T22:30:13.988Z,12.60
2023-04-27T22:32:42.382Z,10.70
2023-04-27T22:35:24.798Z,10.70
2023-04-27T22:37:59.065Z,11.50
2023-04-27T22:40:26.690Z,10.70
2023-04-27T22:42:55.025Z,11.60
2023-04-27T22:45:23.256Z,11.60
2023-04-27T22:47:50.892Z,10.60
2023-04-27T22:50:18.623Z,10.90
2023-04-27T22:52:46.169Z,10.60
2023-04-27T22:55:13.614Z,10.60
2023-04-27T22:57:41.855Z,11.20
2023-04-27T23:00:11.491Z,10.00
2023-04-27T23:02:42.938Z,10.50
2023-04-27T23:05:12.412Z,11.50
2023-04-27T23:07:41.351Z,10.50
2023-04-27T23:10:09.277Z,10.40
2023-04-27T23:12:37.809Z,10.40
2023-04-27T23:15:05.724Z,10.40
2023-04-27T23:17:33.643Z,10.40
2023-04-27T23:20:01.995Z,10.40
2023-04-27T23:22:29.458Z,10.40
2023-04-27T23:24:56.787Z,10.40
2023-04-27T23:27:25.023Z,10.90
2023-04-27T23:29:52.711Z,10.40
2023-04-27T23:32:20.527Z,10.40
2023-04-27T23:34:47.893Z,11.60
2023-04-27T23:37:15.194Z,11.10
2023-04-27T23:39:42.559Z,10.30
2023-04-27T23:42:09.893Z,10.20
2023-04-27T23:44:37.205Z,11.00
2023-04-27T23:47:04.607Z,11.20
2023-04-27T23:49:32.129Z,10.20
2023-04-27T23:51:59.550Z,11.40
2023-04-27T23:54:31.523Z,10.20
2023-04-27T23:56:58.903Z,11.20
2023-04-27T23:59:26.412Z,10.10
